sensor_id;sensor_type;location;lat;lon;timestamp;pressure;altitude;pressure_sealevel;temperature;humidity
7832;BME280;3961;42.058;25.586;2022-07-05T00:00:38;64591.19;;;20.89;74.82
7832;BME280;3961;42.058;25.586;2022-07-05T00:03:03;64586.63;;;20.80;74.68
7832;BME280;3961;42.058;25.586;2022-07-05T00:05:29;64563.28;;;20.60;75.34
7832;BME280;3961;42.058;25.586;2022-07-05T00:07:55;64561.31;;;20.56;74.53
7832;BME280;3961;42.058;25.586;2022-07-05T00:10:21;64519.13;;;20.24;75.33
7832;BME280;3961;42.058;25.586;2022-07-05T00:12:47;64482.34;;;19.92;77.97
7832;BME280;3961;42.058;25.586;2022-07-05T00:15:12;64443.28;;;19.58;78.43
7832;BME280;3961;42.058;25.586;2022-07-05T00:17:38;64480.38;;;19.88;78.93
7832;BME280;3961;42.058;25.586;2022-07-05T00:20:04;64471.50;;;19.85;79.50
7832;BME280;3961;42.058;25.586;2022-07-05T00:22:29;64463.34;;;19.78;80.27
7832;BME280;3961;42.058;25.586;2022-07-05T00:24:55;64468.72;;;19.78;80.48
7832;BME280;3961;42.058;25.586;2022-07-05T00:27:21;64481.78;;;19.92;80.12
7832;BME280;3961;42.058;25.586;2022-07-05T00:29:46;64482.34;;;19.92;80.77
7832;BME280;3961;42.058;25.586;2022-07-05T00:32:12;64496.00;;;20.06;80.71
7832;BME280;3961;42.058;25.586;2022-07-05T00:34:38;64501.41;;;20.06;80.48
7832;BME280;3961;42.058;25.586;2022-07-05T00:37:03;64475.00;;;19.88;81.78
7832;BME280;3961;42.058;25.586;2022-07-05T00:39:29;64476.75;;;19.90;81.52
7832;BME280;3961;42.058;25.586;2022-07-05T00:41:54;64475.56;;;19.89;81.45
7832;BME280;3961;42.058;25.586;2022-07-05T00:44:34;64459.84;;;19.75;82.42
7832;BME280;3961;42.058;25.586;2022-07-05T00:47:05;64482.59;;;19.95;81.75
7832;BME280;3961;42.058;25.586;2022-07-05T00:49:31;64479.53;;;19.97;80.43
7832;BME280;3961;42.058;25.586;2022-07-05T00:51:59;64509.00;;;20.13;79.11
7832;BME280;3961;42.058;25.586;2022-07-05T00:54:26;64487.97;;;19.95;79.34
7832;BME280;3961;42.058;25.586;2022-07-05T00:56:52;64431.38;;;19.45;81.93
7832;BME280;3961;42.058;25.586;2022-07-05T00:59:18;64458.22;;;19.69;80.86
7832;BME280;3961;42.058;25.586;2022-07-05T01:01:44;64438.84;;;19.57;80.95
7832;BME280;3961;42.058;25.586;2022-07-05T01:04:11;64409.66;;;19.31;81.99
7832;BME280;3961;42.058;25.586;2022-07-05T01:06:38;64408.03;;;19.25;82.53
7832;BME280;3961;42.058;25.586;2022-07-05T01:09:05;64364.75;;;18.92;83.28
7832;BME280;3961;42.058;25.586;2022-07-05T01:11:30;64418.19;;;19.36;82.50
7832;BME280;3961;42.058;25.586;2022-07-05T01:13:58;64411.19;;;19.30;83.64
7832;BME280;3961;42.058;25.586;2022-07-05T01:16:24;64400.69;;;19.21;84.86
7832;BME280;3961;42.058;25.586;2022-07-05T01:18:51;64423.78;;;19.39;84.14
7832;BME280;3961;42.058;25.586;2022-07-05T01:21:17;64431.59;;;19.48;83.40
7832;BME280;3961;42.058;25.586;2022-07-05T01:23:45;64408.50;;;19.30;84.29
7832;BME280;3961;42.058;25.586;2022-07-05T01:26:11;64426.00;;;19.45;84.52
7832;BME280;3961;42.058;25.586;2022-07-05T01:28:37;64413.38;;;19.37;84.22
7832;BME280;3961;42.058;25.586;2022-07-05T01:31:02;64446.19;;;19.61;83.11
7832;BME280;3961;42.058;25.586;2022-07-05T01:33:29;64411.19;;;19.30;82.64
7832;BME280;3961;42.058;25.586;2022-07-05T01:35:56;64396.81;;;19.20;83.06
7832;BME280;3961;42.058;25.586;2022-07-05T01:38:23;64416.44;;;19.35;81.92
7832;BME280;3961;42.058;25.586;2022-07-05T01:40:49;64395.06;;;19.19;83.09
7832;BME280;3961;42.058;25.586;2022-07-05T01:43:18;64407.31;;;19.29;82.41
7832;BME280;3961;42.058;25.586;2022-07-05T01:45:46;64383.56;;;19.04;82.88
7832;BME280;3961;42.058;25.586;2022-07-05T01:48:13;64403.00;;;19.23;83.03
7832;BME280;3961;42.058;25.586;2022-07-05T01:50:48;64367.44;;;18.92;84.70
7832;BME280;3961;42.058;25.586;2022-07-05T01:53:22;64368.25;;;18.95;84.36
7832;BME280;3961;42.058;25.586;2022-07-05T01:55:49;64362.19;;;18.88;84.87
7832;BME280;3961;42.058;25.586;2022-07-05T01:58:15;64351.72;;;18.78;84.89
7832;BME280;3961;42.058;25.586;2022-07-05T02:00:49;64301.59;;;18.35;87.29
7832;BME280;3961;42.058;25.586;2022-07-05T02:03:16;64299.03;;;18.30;88.66
7832;BME280;3961;42.058;25.586;2022-07-05T02:05:43;64322.19;;;18.55;87.42
7832;BME280;3961;42.058;25.586;2022-07-05T02:08:09;64308.22;;;18.43;88.82
7832;BME280;3961;42.058;25.586;2022-07-05T02:10:36;64322.19;;;18.55;88.79
7832;BME280;3961;42.058;25.586;2022-07-05T02:13:03;64283.75;;;18.22;88.90
7832;BME280;3961;42.058;25.586;2022-07-05T02:15:33;64300.06;;;18.36;89.68
7832;BME280;3961;42.058;25.586;2022-07-05T02:18:00;64329.31;;;18.57;88.43
7832;BME280;3961;42.058;25.586;2022-07-05T02:20:27;64319.44;;;18.48;89.82
7832;BME280;3961;42.058;25.586;2022-07-05T02:22:53;64296.56;;;18.33;91.07
7832;BME280;3961;42.058;25.586;2022-07-05T02:25:19;64332.72;;;18.64;89.42
7832;BME280;3961;42.058;25.586;2022-07-05T02:27:45;64312.31;;;18.46;89.79
7832;BME280;3961;42.058;25.586;2022-07-05T02:30:11;64286.09;;;18.24;91.96
7832;BME280;3961;42.058;25.586;2022-07-05T02:32:37;64289.34;;;18.24;91.82
7832;BME280;3961;42.058;25.586;2022-07-05T02:35:03;64283.75;;;18.22;92.01
7832;BME280;3961;42.058;25.586;2022-07-05T02:37:29;64293.88;;;18.33;90.87
7832;BME280;3961;42.058;25.586;2022-07-05T02:39:55;64323.94;;;18.57;89.41
7832;BME280;3961;42.058;25.586;2022-07-05T02:42:21;64307.66;;;18.42;90.40
7832;BME280;3961;42.058;25.586;2022-07-05T02:44:46;64272.13;;;18.11;91.94
7832;BME280;3961;42.058;25.586;2022-07-05T02:47:12;64279.91;;;18.21;92.00
7832;BME280;3961;42.058;25.586;2022-07-05T02:49:38;64265.13;;;18.05;92.42
7832;BME280;3961;42.058;25.586;2022-07-05T02:52:03;64230.56;;;17.73;92.62
7832;BME280;3961;42.058;25.586;2022-07-05T02:54:29;64272.47;;;18.09;91.44
7832;BME280;3961;42.058;25.586;2022-07-05T02:56:55;64282.81;;;18.23;91.66
7832;BME280;3961;42.058;25.586;2022-07-05T02:59:20;64293.06;;;18.30;91.59
7832;BME280;3961;42.058;25.586;2022-07-05T03:01:46;64250.78;;;17.95;91.76
7832;BME280;3961;42.058;25.586;2022-07-05T03:04:12;64278.31;;;18.15;92.65
7832;BME280;3961;42.058;25.586;2022-07-05T03:06:37;64247.44;;;17.88;94.39
7832;BME280;3961;42.058;25.586;2022-07-05T03:09:03;64249.97;;;17.92;94.63
7832;BME280;3961;42.058;25.586;2022-07-05T03:11:29;64271.31;;;18.08;93.76
7832;BME280;3961;42.058;25.586;2022-07-05T03:13:54;64296.34;;;18.30;92.30
7832;BME280;3961;42.058;25.586;2022-07-05T03:16:20;64295.53;;;18.27;92.12
7832;BME280;3961;42.058;25.586;2022-07-05T03:18:48;64287.38;;;18.20;92.82
7832;BME280;3961;42.058;25.586;2022-07-05T03:21:13;64265.94;;;18.08;93.66
7832;BME280;3961;42.058;25.586;2022-07-05T03:23:39;64300.78;;;18.32;92.85
7832;BME280;3961;42.058;25.586;2022-07-05T03:26:04;64291.56;;;18.31;92.72
7832;BME280;3961;42.058;25.586;2022-07-05T03:28:30;64317.34;;;18.49;91.96
7832;BME280;3961;42.058;25.586;2022-07-05T03:30:56;64314.06;;;18.48;92.10
7832;BME280;3961;42.058;25.586;2022-07-05T03:33:21;64342.53;;;18.66;92.08
7832;BME280;3961;42.058;25.586;2022-07-05T03:35:47;64384.38;;;19.07;89.86
7832;BME280;3961;42.058;25.586;2022-07-05T03:38:12;64349.97;;;18.77;90.57
7832;BME280;3961;42.058;25.586;2022-07-05T03:40:37;64391.94;;;19.13;89.68
7832;BME280;3961;42.058;25.586;2022-07-05T03:43:03;64392.88;;;19.12;88.29
7832;BME280;3961;42.058;25.586;2022-07-05T03:45:29;64399.75;;;19.23;87.98
7832;BME280;3961;42.058;25.586;2022-07-05T03:47:59;64404.03;;;19.29;86.84
7832;BME280;3961;42.058;25.586;2022-07-05T03:50:25;64564.56;;;20.68;79.96
7832;BME280;3961;42.058;25.586;2022-07-05T03:52:51;64794.66;;;22.66;70.18
7832;BME280;3961;42.058;25.586;2022-07-05T03:55:16;64977.53;;;24.20;62.18
7832;BME280;3961;42.058;25.586;2022-07-05T03:57:42;65097.44;;;25.26;57.39
7832;BME280;3961;42.058;25.586;2022-07-05T04:00:08;65321.97;;;27.15;50.90
7832;BME280;3961;42.058;25.586;2022-07-05T04:02:34;65446.50;;;28.27;46.92
7832;BME280;3961;42.058;25.586;2022-07-05T04:05:00;65513.28;;;28.87;45.30
7832;BME280;3961;42.058;25.586;2022-07-05T04:07:25;65570.16;;;29.34;43.96
7832;BME280;3961;42.058;25.586;2022-07-05T04:09:51;65607.69;;;29.64;43.90
7832;BME280;3961;42.058;25.586;2022-07-05T04:12:16;65493.00;;;28.67;45.69
7832;BME280;3961;42.058;25.586;2022-07-05T04:14:42;65558.97;;;29.24;44.87
7832;BME280;3961;42.058;25.586;2022-07-05T04:17:07;65616.31;;;29.69;43.49
7832;BME280;3961;42.058;25.586;2022-07-05T04:19:33;65670.78;;;30.18;41.85
7832;BME280;3961;42.058;25.586;2022-07-05T04:21:59;65606.50;;;29.63;43.13
7832;BME280;3961;42.058;25.586;2022-07-05T04:24:24;65613.00;;;29.68;44.28
7832;BME280;3961;42.058;25.586;2022-07-05T04:26:50;65781.69;;;31.14;40.17
7832;BME280;3961;42.058;25.586;2022-07-05T04:29:16;65936.44;;;32.47;37.42
7832;BME280;3961;42.058;25.586;2022-07-05T04:31:41;65763.59;;;31.00;39.77
7832;BME280;3961;42.058;25.586;2022-07-05T04:34:07;65770.09;;;31.06;39.97
7832;BME280;3961;42.058;25.586;2022-07-05T04:36:49;65753.34;;;30.89;39.90
7832;BME280;3961;42.058;25.586;2022-07-05T04:39:15;65863.94;;;31.87;38.95
7832;BME280;3961;42.058;25.586;2022-07-05T04:41:40;65917.34;;;32.35;37.78
7832;BME280;3961;42.058;25.586;2022-07-05T04:44:06;65874.00;;;31.95;37.44
7832;BME280;3961;42.058;25.586;2022-07-05T04:46:31;65790.75;;;31.24;40.27
7832;BME280;3961;42.058;25.586;2022-07-05T04:48:57;65926.75;;;32.36;37.65
7832;BME280;3961;42.058;25.586;2022-07-05T04:51:23;65864.94;;;31.85;37.82
7832;BME280;3961;42.058;25.586;2022-07-05T04:53:48;66031.63;;;33.28;36.40
7832;BME280;3961;42.058;25.586;2022-07-05T04:56:14;65945.88;;;32.55;37.15
7832;BME280;3961;42.058;25.586;2022-07-05T04:58:39;65872.22;;;31.94;38.09
7832;BME280;3961;42.058;25.586;2022-07-05T05:01:05;65890.53;;;32.10;38.28
7832;BME280;3961;42.058;25.586;2022-07-05T05:03:30;65822.81;;;31.47;39.94
7832;BME280;3961;42.058;25.586;2022-07-05T05:05:56;65839.53;;;31.63;39.30
7832;BME280;3961;42.058;25.586;2022-07-05T05:08:21;65765.16;;;30.99;40.39
7832;BME280;3961;42.058;25.586;2022-07-05T05:10:47;65853.72;;;31.76;39.03
7832;BME280;3961;42.058;25.586;2022-07-05T05:13:12;65726.22;;;30.66;41.55
7832;BME280;3961;42.058;25.586;2022-07-05T05:15:38;65689.63;;;30.34;42.59
7832;BME280;3961;42.058;25.586;2022-07-05T05:18:04;65674.69;;;30.19;42.45
7832;BME280;3961;42.058;25.586;2022-07-05T05:20:29;65569.38;;;29.31;44.43
7832;BME280;3961;42.058;25.586;2022-07-05T05:22:55;65628.69;;;29.80;44.62
7832;BME280;3961;42.058;25.586;2022-07-05T05:25:21;65573.50;;;29.34;44.68
7832;BME280;3961;42.058;25.586;2022-07-05T05:27:48;65501.03;;;28.72;47.07
7832;BME280;3961;42.058;25.586;2022-07-05T05:30:18;65394.75;;;27.83;49.81
7832;BME280;3961;42.058;25.586;2022-07-05T05:32:44;65405.34;;;27.92;49.23
7832;BME280;3961;42.058;25.586;2022-07-05T05:35:09;65423.34;;;28.05;48.83
7832;BME280;3961;42.058;25.586;2022-07-05T05:37:49;65514.06;;;28.90;45.97
7832;BME280;3961;42.058;25.586;2022-07-05T05:40:15;65581.97;;;29.44;44.76
7832;BME280;3961;42.058;25.586;2022-07-05T05:42:41;65617.31;;;29.74;44.79
7832;BME280;3961;42.058;25.586;2022-07-05T05:45:07;65610.25;;;29.68;44.14
7832;BME280;3961;42.058;25.586;2022-07-05T05:47:32;65586.47;;;29.46;44.22
7832;BME280;3961;42.058;25.586;2022-07-05T05:49:58;65536.59;;;29.05;45.63
7832;BME280;3961;42.058;25.586;2022-07-05T05:52:23;65475.53;;;28.48;46.84
7832;BME280;3961;42.058;25.586;2022-07-05T05:54:49;65486.31;;;28.59;46.70
7832;BME280;3961;42.058;25.586;2022-07-05T05:57:14;65552.72;;;29.21;45.16
7832;BME280;3961;42.058;25.586;2022-07-05T05:59:40;65597.88;;;29.58;43.92
7832;BME280;3961;42.058;25.586;2022-07-05T06:02:05;65627.34;;;29.83;43.95
7832;BME280;3961;42.058;25.586;2022-07-05T06:04:31;65675.69;;;30.25;41.99
7832;BME280;3961;42.058;25.586;2022-07-05T06:06:57;65660.97;;;30.12;43.21
7832;BME280;3961;42.058;25.586;2022-07-05T06:09:22;65616.16;;;29.73;44.00
7832;BME280;3961;42.058;25.586;2022-07-05T06:11:48;65589.44;;;29.48;44.79
7832;BME280;3961;42.058;25.586;2022-07-05T06:14:13;65601.78;;;29.59;44.86
7832;BME280;3961;42.058;25.586;2022-07-05T06:16:39;65561.91;;;29.27;45.43
7832;BME280;3961;42.058;25.586;2022-07-05T06:19:04;65608.88;;;29.65;45.00
7832;BME280;3961;42.058;25.586;2022-07-05T06:21:30;65605.53;;;29.64;43.29
7832;BME280;3961;42.058;25.586;2022-07-05T06:23:55;65643.03;;;29.94;42.73
7832;BME280;3961;42.058;25.586;2022-07-05T06:26:21;65663.69;;;30.12;42.44
7832;BME280;3961;42.058;25.586;2022-07-05T06:28:46;65682.19;;;30.30;42.56
7832;BME280;3961;42.058;25.586;2022-07-05T06:31:14;65685.72;;;30.33;41.40
7832;BME280;3961;42.058;25.586;2022-07-05T06:33:40;65666.47;;;30.19;41.40
7832;BME280;3961;42.058;25.586;2022-07-05T06:36:06;65710.72;;;30.57;41.06
7832;BME280;3961;42.058;25.586;2022-07-05T06:38:32;65665.91;;;30.19;40.76
7832;BME280;3961;42.058;25.586;2022-07-05T06:40:57;65602.22;;;29.64;42.41
7832;BME280;3961;42.058;25.586;2022-07-05T06:43:25;65560.75;;;29.26;43.09
7832;BME280;3961;42.058;25.586;2022-07-05T06:45:51;65605.91;;;29.62;42.96
7832;BME280;3961;42.058;25.586;2022-07-05T06:48:18;65643.03;;;29.94;41.39
7832;BME280;3961;42.058;25.586;2022-07-05T06:50:44;65637.56;;;29.94;40.41
7832;BME280;3961;42.058;25.586;2022-07-05T06:53:10;65633.84;;;29.89;41.14
7832;BME280;3961;42.058;25.586;2022-07-05T06:55:36;65684.91;;;30.30;40.04
7832;BME280;3961;42.058;25.586;2022-07-05T06:58:02;65671.59;;;30.21;41.55
7832;BME280;3961;42.058;25.586;2022-07-05T07:00:29;65682.19;;;30.30;38.96
7832;BME280;3961;42.058;25.586;2022-07-05T07:02:54;65684.91;;;30.30;40.09
7832;BME280;3961;42.058;25.586;2022-07-05T07:05:20;65730.94;;;30.70;37.83
7832;BME280;3961;42.058;25.586;2022-07-05T07:07:46;65751.78;;;30.90;36.82
7832;BME280;3961;42.058;25.586;2022-07-05T07:10:30;65751.78;;;30.90;38.30
7832;BME280;3961;42.058;25.586;2022-07-05T07:12:59;65718.34;;;30.57;36.51
7832;BME280;3961;42.058;25.586;2022-07-05T07:15:26;65702.22;;;30.48;36.47
7832;BME280;3961;42.058;25.586;2022-07-05T07:17:52;65692.22;;;30.39;38.50
7832;BME280;3961;42.058;25.586;2022-07-05T07:20:17;65738.22;;;30.79;38.00
7832;BME280;3961;42.058;25.586;2022-07-05T07:22:43;65752.00;;;30.93;36.81
7832;BME280;3961;42.058;25.586;2022-07-05T07:25:09;65757.09;;;30.95;38.23
7832;BME280;3961;42.058;25.586;2022-07-05T07:27:44;65688.06;;;30.35;38.46
7832;BME280;3961;42.058;25.586;2022-07-05T07:30:12;65644.81;;;29.96;39.46
7832;BME280;3961;42.058;25.586;2022-07-05T07:32:37;65648.00;;;30.01;39.28
7832;BME280;3961;42.058;25.586;2022-07-05T07:35:04;65691.63;;;30.38;39.30
7832;BME280;3961;42.058;25.586;2022-07-05T07:37:29;65691.22;;;30.40;39.17
7832;BME280;3961;42.058;25.586;2022-07-05T07:39:55;65761.22;;;30.98;37.77
7832;BME280;3961;42.058;25.586;2022-07-05T07:42:20;65751.56;;;30.88;38.02
7832;BME280;3961;42.058;25.586;2022-07-05T07:44:46;65758.88;;;30.96;36.36
7832;BME280;3961;42.058;25.586;2022-07-05T07:47:11;65794.28;;;31.27;36.47
7832;BME280;3961;42.058;25.586;2022-07-05T07:49:37;65828.13;;;31.58;36.27
7832;BME280;3961;42.058;25.586;2022-07-05T07:52:03;65846.84;;;31.72;35.94
7832;BME280;3961;42.058;25.586;2022-07-05T07:54:29;65854.31;;;31.76;35.11
7832;BME280;3961;42.058;25.586;2022-07-05T07:56:55;65846.63;;;31.69;34.48
7832;BME280;3961;42.058;25.586;2022-07-05T07:59:21;65819.25;;;31.44;35.70
7832;BME280;3961;42.058;25.586;2022-07-05T08:01:46;65854.72;;;31.81;35.28
7832;BME280;3961;42.058;25.586;2022-07-05T08:04:13;65905.09;;;32.20;34.97
7832;BME280;3961;42.058;25.586;2022-07-05T08:06:39;65959.47;;;32.66;34.68
7832;BME280;3961;42.058;25.586;2022-07-05T08:09:04;66017.78;;;33.14;32.60
7832;BME280;3961;42.058;25.586;2022-07-05T08:11:30;66001.44;;;33.02;32.73
7832;BME280;3961;42.058;25.586;2022-07-05T08:13:56;66041.06;;;33.36;32.60
7832;BME280;3961;42.058;25.586;2022-07-05T08:16:22;66085.81;;;33.72;30.96
7832;BME280;3961;42.058;25.586;2022-07-05T08:18:47;66062.75;;;33.60;30.52
7832;BME280;3961;42.058;25.586;2022-07-05T08:21:31;66070.25;;;33.64;30.79
7832;BME280;3961;42.058;25.586;2022-07-05T08:23:58;66054.66;;;33.48;29.94
7832;BME280;3961;42.058;25.586;2022-07-05T08:26:25;66002.84;;;33.06;30.58
7832;BME280;3961;42.058;25.586;2022-07-05T08:28:51;66036.94;;;33.33;29.26
7832;BME280;3961;42.058;25.586;2022-07-05T08:31:16;66055.25;;;33.49;29.99
7832;BME280;3961;42.058;25.586;2022-07-05T08:33:42;66013.66;;;33.11;30.34
7832;BME280;3961;42.058;25.586;2022-07-05T08:36:07;66065.72;;;33.62;30.08
7832;BME280;3961;42.058;25.586;2022-07-05T08:38:33;66059.81;;;33.57;30.51
7832;BME280;3961;42.058;25.586;2022-07-05T08:41:00;66071.44;;;33.65;30.79
7832;BME280;3961;42.058;25.586;2022-07-05T08:43:28;66074.19;;;33.65;29.19
7832;BME280;3961;42.058;25.586;2022-07-05T08:45:53;66142.63;;;34.21;28.58
7832;BME280;3961;42.058;25.586;2022-07-05T08:48:21;66118.38;;;34.00;28.29
7832;BME280;3961;42.058;25.586;2022-07-05T08:50:47;66112.88;;;34.00;30.55
7832;BME280;3961;42.058;25.586;2022-07-05T08:53:18;66146.81;;;34.32;28.30
7832;BME280;3961;42.058;25.586;2022-07-05T08:55:44;66138.47;;;34.18;29.72
7832;BME280;3961;42.058;25.586;2022-07-05T08:58:10;66128.63;;;34.12;26.48
7832;BME280;3961;42.058;25.586;2022-07-05T09:00:40;66133.75;;;34.14;27.43
7832;BME280;3961;42.058;25.586;2022-07-05T09:03:07;66088.59;;;33.80;27.64
7832;BME280;3961;42.058;25.586;2022-07-05T09:05:41;65965.38;;;32.71;28.32
7832;BME280;3961;42.058;25.586;2022-07-05T09:08:10;65961.81;;;32.68;28.00
7832;BME280;3961;42.058;25.586;2022-07-05T09:10:38;65974.84;;;32.80;28.34
7832;BME280;3961;42.058;25.586;2022-07-05T09:13:05;65964.56;;;32.68;28.08
7832;BME280;3961;42.058;25.586;2022-07-05T09:15:30;65899.38;;;32.17;28.43
7832;BME280;3961;42.058;25.586;2022-07-05T09:17:56;65901.00;;;32.23;28.57
7832;BME280;3961;42.058;25.586;2022-07-05T09:20:22;65961.66;;;32.73;29.02
7832;BME280;3961;42.058;25.586;2022-07-05T09:28:00;66129.81;;;34.13;27.56
7832;BME280;3961;42.058;25.586;2022-07-05T09:35:39;66218.44;;;34.93;27.05
7832;BME280;3961;42.058;25.586;2022-07-05T09:38:06;66176.78;;;34.55;27.11
7832;BME280;3961;42.058;25.586;2022-07-05T09:40:58;66112.88;;;34.00;27.38
7832;BME280;3961;42.058;25.586;2022-07-05T09:43:27;66073.00;;;33.64;28.11
7832;BME280;3961;42.058;25.586;2022-07-05T09:48:21;66075.97;;;33.66;27.33
7832;BME280;3961;42.058;25.586;2022-07-05T09:50:48;66043.84;;;33.44;27.73
7832;BME280;3961;42.058;25.586;2022-07-05T09:53:14;66071.81;;;33.63;27.53
7832;BME280;3961;42.058;25.586;2022-07-05T09:55:39;66055.66;;;33.54;27.15
7832;BME280;3961;42.058;25.586;2022-07-05T09:58:06;66057.03;;;33.50;27.75
7832;BME280;3961;42.058;25.586;2022-07-05T10:00:33;66071.81;;;33.63;27.94
7832;BME280;3961;42.058;25.586;2022-07-05T10:02:59;66089.56;;;33.78;27.45
7832;BME280;3961;42.058;25.586;2022-07-05T10:05:31;66098.66;;;33.88;26.64
7832;BME280;3961;42.058;25.586;2022-07-05T10:07:59;66022.13;;;33.20;28.33
7832;BME280;3961;42.058;25.586;2022-07-05T10:10:27;65991.00;;;32.96;29.59
7832;BME280;3961;42.058;25.586;2022-07-05T10:12:57;65983.13;;;32.87;28.48
7832;BME280;3961;42.058;25.586;2022-07-05T10:15:29;66019.16;;;33.18;29.10
7832;BME280;3961;42.058;25.586;2022-07-05T10:23:03;66060.78;;;33.56;28.36
7832;BME280;3961;42.058;25.586;2022-07-05T10:25:30;66026.06;;;33.21;27.69
7832;BME280;3961;42.058;25.586;2022-07-05T10:27:57;66063.53;;;33.56;28.23
7832;BME280;3961;42.058;25.586;2022-07-05T10:30:24;66093.53;;;33.86;28.36
7832;BME280;3961;42.058;25.586;2022-07-05T10:32:50;66138.69;;;34.20;26.96
7832;BME280;3961;42.058;25.586;2022-07-05T10:35:19;66039.69;;;33.33;27.90
7832;BME280;3961;42.058;25.586;2022-07-05T10:37:47;66020.16;;;33.16;28.30
7832;BME280;3961;42.058;25.586;2022-07-05T10:40:14;66074.56;;;33.63;28.85
7832;BME280;3961;42.058;25.586;2022-07-05T10:42:47;66113.84;;;33.99;28.64
7832;BME280;3961;42.058;25.586;2022-07-05T10:45:27;66100.63;;;33.85;28.98
7832;BME280;3961;42.058;25.586;2022-07-05T10:50:44;66157.84;;;34.39;27.86
7832;BME280;3961;42.058;25.586;2022-07-05T10:53:10;66202.63;;;34.75;27.59
7832;BME280;3961;42.058;25.586;2022-07-05T10:58:48;66244.69;;;35.11;28.76
7832;BME280;3961;42.058;25.586;2022-07-05T11:01:33;66194.56;;;34.70;28.39
7832;BME280;3961;42.058;25.586;2022-07-05T11:14:03;65976.44;;;32.79;30.73
7832;BME280;3961;42.058;25.586;2022-07-05T11:16:31;66049.16;;;33.41;30.31
7832;BME280;3961;42.058;25.586;2022-07-05T11:21:34;66139.88;;;34.21;29.07
7832;BME280;3961;42.058;25.586;2022-07-05T11:24:19;66051.72;;;33.46;28.73
7832;BME280;3961;42.058;25.586;2022-07-05T11:26:48;66050.53;;;33.45;28.64
7832;BME280;3961;42.058;25.586;2022-07-05T11:29:49;66056.66;;;33.52;28.05
7832;BME280;3961;42.058;25.586;2022-07-05T11:34:42;66095.88;;;33.81;26.84
7832;BME280;3961;42.058;25.586;2022-07-05T11:39:40;66030.44;;;33.27;28.24
7832;BME280;3961;42.058;25.586;2022-07-05T11:42:08;66078.91;;;33.69;27.74
7832;BME280;3961;42.058;25.586;2022-07-05T11:44:34;66093.34;;;33.84;28.88
7832;BME280;3961;42.058;25.586;2022-07-05T11:47:01;66145.78;;;34.26;29.08
7832;BME280;3961;42.058;25.586;2022-07-05T11:49:27;66163.56;;;34.42;28.33
7832;BME280;3961;42.058;25.586;2022-07-05T11:51:58;66096.88;;;33.87;27.30
7832;BME280;3961;42.058;25.586;2022-07-05T11:54:33;66079.50;;;33.69;28.23
7832;BME280;3961;42.058;25.586;2022-07-05T11:57:00;66065.72;;;33.62;27.66
7832;BME280;3961;42.058;25.586;2022-07-05T11:59:26;66097.84;;;33.85;27.79
7832;BME280;3961;42.058;25.586;2022-07-05T12:01:53;66176.97;;;34.51;27.42
7832;BME280;3961;42.058;25.586;2022-07-05T12:04:29;66196.13;;;34.69;26.56
7832;BME280;3961;42.058;25.586;2022-07-05T12:06:55;66224.94;;;34.92;26.77
7832;BME280;3961;42.058;25.586;2022-07-05T12:09:23;66205.41;;;34.75;27.05
7832;BME280;3961;42.058;25.586;2022-07-05T12:11:53;66151.91;;;34.27;27.32
7832;BME280;3961;42.058;25.586;2022-07-05T12:14:49;66077.34;;;33.70;27.96
7832;BME280;3961;42.058;25.586;2022-07-05T12:17:17;66053.28;;;33.45;28.26
7832;BME280;3961;42.058;25.586;2022-07-05T12:19:45;65949.41;;;32.58;29.26
7832;BME280;3961;42.058;25.586;2022-07-05T12:22:11;65957.31;;;32.67;29.58
7832;BME280;3961;42.058;25.586;2022-07-05T12:24:37;65975.63;;;32.83;30.06
7832;BME280;3961;42.058;25.586;2022-07-05T12:27:03;66052.13;;;33.44;29.76
7832;BME280;3961;42.058;25.586;2022-07-05T12:29:29;66064.13;;;33.56;28.57
7832;BME280;3961;42.058;25.586;2022-07-05T12:32:02;66092.72;;;33.76;28.21
7832;BME280;3961;42.058;25.586;2022-07-05T12:34:28;66072.63;;;33.66;28.61
7832;BME280;3961;42.058;25.586;2022-07-05T12:36:54;66041.66;;;33.37;28.76
7832;BME280;3961;42.058;25.586;2022-07-05T12:39:20;66060.00;;;33.53;28.67
7832;BME280;3961;42.058;25.586;2022-07-05T12:41:46;66009.72;;;33.10;29.26
7832;BME280;3961;42.058;25.586;2022-07-05T12:44:11;66040.09;;;33.38;28.83
7832;BME280;3961;42.058;25.586;2022-07-05T12:46:38;66043.84;;;33.36;28.33
7832;BME280;3961;42.058;25.586;2022-07-05T12:49:04;66110.09;;;33.93;28.01
7832;BME280;3961;42.058;25.586;2022-07-05T12:51:40;66085.03;;;33.77;28.47
7832;BME280;3961;42.058;25.586;2022-07-05T12:54:07;66140.47;;;34.22;27.83
7832;BME280;3961;42.058;25.586;2022-07-05T12:56:53;66102.59;;;33.89;28.32
7832;BME280;3961;42.058;25.586;2022-07-05T12:59:38;66049.94;;;33.44;28.48
7832;BME280;3961;42.058;25.586;2022-07-05T13:02:06;66068.28;;;33.60;28.58
7832;BME280;3961;42.058;25.586;2022-07-05T13:04:32;66082.69;;;33.75;28.47
7832;BME280;3961;42.058;25.586;2022-07-05T13:07:00;66105.75;;;33.87;28.53
7832;BME280;3961;42.058;25.586;2022-07-05T13:14:46;66119.16;;;34.03;28.18
7832;BME280;3961;42.058;25.586;2022-07-05T13:17:14;66134.75;;;34.19;28.38
7832;BME280;3961;42.058;25.586;2022-07-05T13:19:41;66057.63;;;33.51;28.51
7832;BME280;3961;42.058;25.586;2022-07-05T13:22:07;66045.59;;;33.38;28.60
7832;BME280;3961;42.058;25.586;2022-07-05T13:24:33;66019.97;;;33.21;29.41
7832;BME280;3961;42.058;25.586;2022-07-05T13:26:59;66024.88;;;33.20;29.31
7832;BME280;3961;42.058;25.586;2022-07-05T13:29:25;66071.03;;;33.60;28.74
7832;BME280;3961;42.058;25.586;2022-07-05T13:31:51;66103.41;;;33.92;28.74
7832;BME280;3961;42.058;25.586;2022-07-05T13:34:17;66085.44;;;33.75;28.70
7832;BME280;3961;42.058;25.586;2022-07-05T13:36:43;66093.50;;;33.79;28.78
7832;BME280;3961;42.058;25.586;2022-07-05T13:39:10;66103.78;;;33.90;28.61
7832;BME280;3961;42.058;25.586;2022-07-05T13:41:36;66081.88;;;33.71;29.10
7832;BME280;3961;42.058;25.586;2022-07-05T13:44:02;66095.50;;;33.83;29.14
7832;BME280;3961;42.058;25.586;2022-07-05T13:46:28;66093.13;;;33.81;29.14
7832;BME280;3961;42.058;25.586;2022-07-05T13:48:53;66105.34;;;33.89;28.51
7832;BME280;3961;42.058;25.586;2022-07-05T13:51:19;66099.44;;;33.84;29.06
7832;BME280;3961;42.058;25.586;2022-07-05T13:53:45;66139.88;;;34.21;28.24
7832;BME280;3961;42.058;25.586;2022-07-05T13:56:11;66155.09;;;34.32;28.54